Time;durP1;ratioP1;P1;durP2;ratioP2;P2;SDS_P1;SDS_P2;PMS_P1;PMS_P2;Temp;Humidity;BMP_temperature;BMP_pressure;BME280_temperature;BME280_humidity;BME280_pressure;Samples;Min_cycle;Max_cycle;Signal;HPM_P1;HPM_P2
2021/10/30 00:00:51;;;;;;;91.22;81.63;;;;;;;2.92;100.00;102164.09;5022658;28;20081;-78
2021/10/30 00:03:18;;;;;;;94.45;84.80;;;;;;;2.83;100.00;102165.66;5006423;28;20050;-78
2021/10/30 00:05:48;;;;;;;102.07;92.50;;;;;;;3.04;100.00;102168.38;5011486;28;20046;-79
2021/10/30 00:08:16;;;;;;;97.93;88.38;;;;;;;2.99;100.00;102170.53;5004754;28;20487;-78
2021/10/30 00:10:43;;;;;;;94.43;84.32;;;;;;;2.40;100.00;102171.59;5003737;28;20049;-81
2021/10/30 00:13:10;;;;;;;98.00;86.07;;;;;;;2.66;100.00;102167.00;5007928;28;20050;-78
2021/10/30 00:15:37;;;;;;;103.40;92.93;;;;;;;2.74;100.00;102161.97;5002594;28;20112;-78
2021/10/30 00:18:05;;;;;;;100.10;89.75;;;;;;;2.59;100.00;102171.00;5004338;28;20495;-81
2021/10/30 00:20:33;;;;;;;99.72;89.65;;;;;;;2.67;100.00;102162.56;5011189;28;20050;-78
2021/10/30 00:23:02;;;;;;;100.30;90.55;;;;;;;2.74;100.00;102161.13;5002718;28;20043;-78
2021/10/30 00:25:28;;;;;;;100.85;90.45;;;;;;;2.53;100.00;102169.69;5010559;28;20050;-78
2021/10/30 00:27:57;;;;;;;96.03;86.47;;;;;;;2.53;100.00;102156.56;5010801;28;20452;-78
2021/10/30 00:30:24;;;;;;;101.53;91.22;;;;;;;2.37;100.00;102155.28;5011127;28;20046;-77
2021/10/30 00:32:51;;;;;;;103.03;92.20;;;;;;;2.42;100.00;102148.72;5012943;28;20053;-78
2021/10/30 00:35:19;;;;;;;102.22;89.18;;;;;;;2.37;100.00;102147.41;5012836;28;20046;-78
2021/10/30 00:37:46;;;;;;;104.60;93.45;;;;;;;2.54;100.00;102149.53;5018668;28;20049;-78
2021/10/30 00:40:14;;;;;;;119.32;107.75;;;;;;;2.43;100.00;102146.94;5012548;28;20058;-78
2021/10/30 00:42:41;;;;;;;110.15;98.80;;;;;;;2.48;100.00;102144.78;5004572;28;20101;-78
2021/10/30 00:45:09;;;;;;;106.05;94.82;;;;;;;2.31;100.00;102143.47;5007890;28;20448;-78
2021/10/30 00:47:36;;;;;;;107.30;95.43;;;;;;;2.42;100.00;102145.25;5003188;28;20058;-80
2021/10/30 00:50:05;;;;;;;99.28;88.80;;;;;;;2.24;100.00;102142.22;5007043;28;20127;-78
2021/10/30 00:52:34;;;;;;;95.50;85.45;;;;;;;1.71;100.00;102147.94;5008549;28;20136;-78
2021/10/30 00:55:03;;;;;;;100.93;87.72;;;;;;;2.04;100.00;102141.13;5011098;28;20047;-78
2021/10/30 00:57:34;;;;;;;100.03;89.47;;;;;;;2.19;100.00;102137.34;5005274;28;20105;-79
2021/10/30 01:00:02;;;;;;;92.82;83.07;;;;;;;2.09;100.00;102141.63;5004190;28;20057;-78
2021/10/30 01:02:29;;;;;;;91.50;82.00;;;;;;;1.80;100.00;102135.94;5010949;28;20080;-78
2021/10/30 01:04:55;;;;;;;94.93;78.75;;;;;;;1.88;100.00;102148.50;5013744;28;20458;-78
2021/10/30 01:07:28;;;;;;;82.03;72.60;;;;;;;1.51;100.00;102141.56;5014656;28;20062;-78
2021/10/30 01:09:55;;;;;;;92.60;83.13;;;;;;;1.58;100.00;102144.56;4995849;28;20467;-80
2021/10/30 01:12:22;;;;;;;99.10;88.65;;;;;;;1.52;100.00;102134.53;5009287;28;20124;-77
2021/10/30 01:14:52;;;;;;;92.45;80.82;;;;;;;1.47;100.00;102136.63;5000842;28;20443;-78
2021/10/30 01:17:20;;;;;;;96.72;86.50;;;;;;;1.43;100.00;102145.69;5014951;28;20058;-82
2021/10/30 01:19:51;;;;;;;91.40;81.65;;;;;;;1.78;100.00;102136.03;5010080;28;20054;-78
2021/10/30 01:22:19;;;;;;;90.43;80.85;;;;;;;1.87;100.00;102144.19;5002655;28;20137;-78
2021/10/30 01:24:46;;;;;;;89.03;78.25;;;;;;;1.66;100.00;102141.34;4995543;28;20054;-78
2021/10/30 01:27:15;;;;;;;90.25;80.85;;;;;;;1.81;100.00;102151.53;5008887;28;20080;-78
2021/10/30 01:29:42;;;;;;;92.43;83.32;;;;;;;1.82;100.00;102153.22;5007981;28;20115;-78
2021/10/30 01:32:09;;;;;;;102.88;91.82;;;;;;;1.71;100.00;102150.56;5019422;28;20107;-80
2021/10/30 01:34:36;;;;;;;112.72;97.03;;;;;;;1.82;100.00;102153.22;5008682;28;20045;-78
2021/10/30 01:37:05;;;;;;;115.93;95.47;;;;;;;1.60;100.00;102143.50;5009605;28;20057;-78
2021/10/30 01:39:32;;;;;;;147.63;121.97;;;;;;;1.61;100.00;102141.72;5014628;28;20053;-79
2021/10/30 01:41:59;;;;;;;128.68;108.32;;;;;;;1.52;100.00;102150.25;5006387;28;20054;-81
2021/10/30 01:44:27;;;;;;;129.85;104.65;;;;;;;1.48;100.00;102154.84;5011314;28;20053;-78
2021/10/30 01:46:57;;;;;;;114.35;95.28;;;;;;;1.46;100.00;102150.69;5002325;28;20415;-78
2021/10/30 01:49:24;;;;;;;105.25;93.47;;;;;;;1.13;100.00;102153.00;5012615;28;20518;-78
2021/10/30 01:51:51;;;;;;;116.75;104.53;;;;;;;1.35;100.00;102148.84;5003336;28;20049;-81
2021/10/30 01:54:19;;;;;;;109.15;94.15;;;;;;;1.47;100.00;102147.94;5026657;28;20383;-78
2021/10/30 01:56:46;;;;;;;93.78;84.65;;;;;;;1.34;100.00;102149.78;5014372;28;20049;-78
2021/10/30 01:59:13;;;;;;;95.00;84.57;;;;;;;1.21;100.00;102146.38;5007044;28;20120;-78
2021/10/30 02:01:40;;;;;;;88.93;79.47;;;;;;;0.75;100.00;102147.84;5128300;22;20092;-77
2021/10/30 02:04:07;;;;;;;90.93;80.72;;;;;;;1.14;100.00;102149.41;5022041;28;20473;-78
2021/10/30 02:06:34;;;;;;;94.72;84.10;;;;;;;1.05;100.00;102149.25;5019096;28;20050;-77
2021/10/30 02:09:01;;;;;;;94.15;84.43;;;;;;;1.24;100.00;102146.16;5028199;28;20053;-78
2021/10/30 02:11:29;;;;;;;90.50;79.80;;;;;;;1.22;100.00;102151.50;5030629;28;20046;-78
2021/10/30 02:13:56;;;;;;;89.32;79.72;;;;;;;1.11;100.00;102151.44;5016711;28;20053;-77
2021/10/30 02:16:24;;;;;;;112.30;88.05;;;;;;;1.20;100.00;102156.00;5019295;28;20054;-78
2021/10/30 02:18:51;;;;;;;90.95;80.82;;;;;;;1.16;100.00;102164.19;5029038;28;20041;-80
2021/10/30 02:21:18;;;;;;;106.40;86.00;;;;;;;1.21;100.00;102162.06;5022625;28;20121;-77
2021/10/30 02:23:44;;;;;;;117.47;99.63;;;;;;;0.99;100.00;102163.59;5029986;28;20046;-79
2021/10/30 02:26:11;;;;;;;125.63;99.30;;;;;;;0.99;100.00;102160.97;5026311;28;20115;-78
2021/10/30 02:28:40;;;;;;;122.40;97.63;;;;;;;1.00;100.00;102167.03;5025282;28;20119;-77
2021/10/30 02:31:06;;;;;;;103.65;91.93;;;;;;;1.29;100.00;102167.59;5026305;28;20054;-77
2021/10/30 02:33:33;;;;;;;92.97;80.22;;;;;;;1.06;100.00;102164.00;5024090;28;20112;-77
2021/10/30 02:36:00;;;;;;;89.47;79.65;;;;;;;0.78;100.00;102162.47;5025974;28;20053;-78
2021/10/30 02:38:27;;;;;;;94.45;84.43;;;;;;;0.94;100.00;102167.47;5025755;28;20455;-78
2021/10/30 02:40:54;;;;;;;99.63;89.43;;;;;;;0.84;100.00;102164.66;5030329;28;20080;-81
2021/10/30 02:43:26;;;;;;;95.47;85.45;;;;;;;0.85;100.00;102161.13;5025480;28;20064;-79
2021/10/30 02:45:55;;;;;;;111.15;100.20;;;;;;;1.02;100.00;102162.53;5025161;28;20104;-77
2021/10/30 02:48:22;;;;;;;109.25;98.32;;;;;;;1.11;100.00;102167.13;5029774;28;20053;-77
2021/10/30 02:50:48;;;;;;;106.55;95.95;;;;;;;1.03;100.00;102169.44;5031115;28;20049;-77
2021/10/30 02:53:15;;;;;;;113.13;100.97;;;;;;;1.09;100.00;102167.25;5027138;28;20049;-81
2021/10/30 02:55:42;;;;;;;129.18;114.15;;;;;;;0.93;100.00;102171.03;5034452;28;20061;-77
2021/10/30 02:58:09;;;;;;;137.02;109.35;;;;;;;0.79;100.00;102172.84;5018993;28;20061;-78
2021/10/30 03:00:36;;;;;;;141.43;109.43;;;;;;;0.84;100.00;102175.13;5032716;28;20465;-77
2021/10/30 03:03:04;;;;;;;129.20;104.85;;;;;;;0.90;100.00;102178.16;5026337;28;20054;-78
2021/10/30 03:05:33;;;;;;;146.40;108.72;;;;;;;0.85;100.00;102185.50;5032247;28;20828;-78
2021/10/30 03:08:00;;;;;;;145.88;106.03;;;;;;;0.73;100.00;102183.75;5032271;28;20045;-77
2021/10/30 03:10:27;;;;;;;135.27;98.88;;;;;;;0.67;100.00;102181.56;5034683;28;20053;-79
2021/10/30 03:12:54;;;;;;;128.75;95.68;;;;;;;0.61;100.00;102179.34;5030087;28;20428;-77
2021/10/30 03:15:21;;;;;;;140.80;103.32;;;;;;;0.75;100.00;102175.78;5029928;28;20449;-77
2021/10/30 03:17:48;;;;;;;126.25;99.68;;;;;;;0.77;100.00;102193.03;5035959;28;20190;-77
2021/10/30 03:20:16;;;;;;;120.82;97.07;;;;;;;0.69;100.00;102185.72;5022394;28;20081;-79
2021/10/30 03:22:43;;;;;;;132.45;98.80;;;;;;;0.82;100.00;102183.09;5031416;28;20456;-78
2021/10/30 03:25:12;;;;;;;133.02;103.60;;;;;;;1.03;100.00;102185.16;5021841;28;20053;-78
2021/10/30 03:27:39;;;;;;;142.93;104.78;;;;;;;0.94;100.00;102180.56;5027285;28;20470;-78
2021/10/30 03:30:07;;;;;;;113.32;92.22;;;;;;;0.68;100.00;102180.59;5029491;28;20050;-79
2021/10/30 03:32:34;;;;;;;108.78;89.28;;;;;;;0.60;100.00;102183.72;5026670;28;20111;-79
2021/10/30 03:35:04;;;;;;;119.88;91.20;;;;;;;0.88;100.00;102184.47;5023101;28;20053;-77
2021/10/30 03:37:35;;;;;;;101.22;87.43;;;;;;;0.87;100.00;102180.97;5024868;28;20084;-80
2021/10/30 03:40:03;;;;;;;100.05;85.68;;;;;;;0.88;100.00;102189.69;5034202;28;20128;-77
2021/10/30 03:42:31;;;;;;;101.75;88.03;;;;;;;0.54;100.00;102189.38;5026974;28;20050;-80
2021/10/30 03:44:57;;;;;;;101.53;84.90;;;;;;;0.55;100.00;102187.63;5031221;28;20053;-77
2021/10/30 03:47:24;;;;;;;97.53;84.72;;;;;;;0.43;100.00;102186.69;5025045;28;20054;-77
2021/10/30 03:49:51;;;;;;;104.03;85.93;;;;;;;0.40;100.00;102198.16;5027063;28;20452;-80
2021/10/30 03:52:18;;;;;;;124.90;96.85;;;;;;;0.45;100.00;102193.47;5025766;28;20075;-76
2021/10/30 03:54:46;;;;;;;151.52;99.18;;;;;;;0.42;100.00;102198.91;5036356;28;20099;-77
2021/10/30 03:57:13;;;;;;;213.00;112.60;;;;;;;0.44;100.00;102194.41;5024155;28;20111;-77
2021/10/30 03:59:41;;;;;;;184.45;110.25;;;;;;;0.53;100.00;102198.16;5030947;28;20371;-78
2021/10/30 04:02:08;;;;;;;179.02;106.03;;;;;;;0.41;100.00;102201.63;5018327;28;20116;-77
2021/10/30 04:04:35;;;;;;;175.55;100.07;;;;;;;0.22;100.00;102205.47;4995066;28;20049;-77
2021/10/30 04:07:02;;;;;;;175.30;99.70;;;;;;;0.33;100.00;102204.72;5020304;28;20105;-77
2021/10/30 04:09:31;;;;;;;205.75;108.97;;;;;;;0.60;100.00;102206.44;5005735;28;20478;-78
2021/10/30 04:11:59;;;;;;;336.35;137.43;;;;;;;-0.12;100.00;102203.38;5001801;28;20446;-77
2021/10/30 04:14:26;;;;;;;259.25;121.03;;;;;;;0.28;100.00;102208.63;5013673;28;20054;-78
2021/10/30 04:16:53;;;;;;;143.88;91.05;;;;;;;0.36;100.00;102207.13;5004446;28;20112;-79
2021/10/30 04:19:20;;;;;;;163.95;96.63;;;;;;;0.26;100.00;102208.69;4998715;28;20463;-80
2021/10/30 04:21:48;;;;;;;131.02;88.95;;;;;;;0.25;100.00;102208.81;5001928;28;20545;-81
2021/10/30 04:24:15;;;;;;;134.55;91.18;;;;;;;0.07;100.00;102205.66;5003884;28;20061;-77
2021/10/30 04:26:42;;;;;;;142.50;87.28;;;;;;;0.35;100.00;102207.25;5010858;28;20049;-78
2021/10/30 04:29:10;;;;;;;95.78;73.93;;;;;;;-0.18;100.00;102201.16;5010006;28;20061;-77
2021/10/30 04:31:37;;;;;;;105.03;81.55;;;;;;;0.14;100.00;102196.47;5005579;28;20403;-79
2021/10/30 04:34:05;;;;;;;99.40;80.18;;;;;;;0.88;100.00;102202.78;5003779;28;20062;-79
2021/10/30 04:36:35;;;;;;;91.85;71.80;;;;;;;0.45;100.00;102206.56;5005274;28;20104;-81
2021/10/30 04:39:03;;;;;;;84.72;74.50;;;;;;;0.45;100.00;102208.31;5013308;28;20046;-78
2021/10/30 04:41:31;;;;;;;95.28;84.80;;;;;;;0.76;100.00;102214.91;5007305;28;20079;-80
2021/10/30 04:43:57;;;;;;;116.65;90.28;;;;;;;0.59;100.00;102205.59;5005085;28;20054;-80
2021/10/30 04:46:26;;;;;;;170.52;110.68;;;;;;;0.34;100.00;102216.03;5002129;28;20047;-80
2021/10/30 04:48:53;;;;;;;166.10;108.35;;;;;;;0.22;100.00;102210.69;5002659;28;20060;-77
2021/10/30 04:51:20;;;;;;;183.98;116.65;;;;;;;0.55;100.00;102211.16;5000886;28;20122;-78
2021/10/30 04:53:47;;;;;;;174.90;109.78;;;;;;;0.61;100.00;102203.72;5002618;28;20046;-80
2021/10/30 04:56:14;;;;;;;158.90;100.45;;;;;;;0.80;100.00;102208.53;4924331;28;20046;-79
2021/10/30 04:58:43;;;;;;;162.57;103.55;;;;;;;1.11;100.00;102220.31;5006807;28;20050;-79
2021/10/30 05:01:11;;;;;;;163.32;110.78;;;;;;;1.15;100.00;102223.56;5000377;28;20062;-79
2021/10/30 05:03:40;;;;;;;176.15;116.30;;;;;;;1.13;100.00;102222.81;5010063;28;20050;-79
2021/10/30 05:06:07;;;;;;;177.60;111.75;;;;;;;1.23;100.00;102226.47;5007408;28;20050;-78
2021/10/30 05:08:35;;;;;;;187.70;119.25;;;;;;;1.38;100.00;102232.41;5001532;28;20054;-79
2021/10/30 05:11:01;;;;;;;163.90;111.85;;;;;;;1.58;100.00;102230.97;5002594;28;20475;-80
2021/10/30 05:13:28;;;;;;;172.98;116.57;;;;;;;1.53;100.00;102235.72;5004581;28;20119;-78
2021/10/30 05:16:01;;;;;;;176.32;115.28;;;;;;;1.51;100.00;102235.84;4997257;28;20112;-79
2021/10/30 05:18:28;;;;;;;172.95;115.15;;;;;;;1.62;100.00;102232.44;4997874;28;20120;-78
2021/10/30 05:20:56;;;;;;;171.93;119.28;;;;;;;1.89;100.00;102236.63;5001316;28;20053;-80
2021/10/30 05:23:23;;;;;;;157.43;111.03;;;;;;;2.00;100.00;102242.75;5009279;28;20053;-79
2021/10/30 05:25:50;;;;;;;172.02;117.65;;;;;;;2.03;100.00;102244.31;5008858;28;20125;-78
2021/10/30 05:28:21;;;;;;;186.02;122.35;;;;;;;1.78;100.00;102250.47;5002181;28;20049;-81
2021/10/30 05:30:49;;;;;;;175.45;121.82;;;;;;;1.86;100.00;102247.31;5000857;28;20540;-78
2021/10/30 05:33:16;;;;;;;167.23;116.97;;;;;;;2.45;100.00;102247.28;5004954;28;20053;-80
2021/10/30 05:35:43;;;;;;;157.30;113.18;;;;;;;2.67;100.00;102242.09;5003470;28;20065;-79
2021/10/30 05:38:13;;;;;;;154.30;107.53;;;;;;;2.84;100.00;102247.84;5004288;28;20064;-79
2021/10/30 05:40:40;;;;;;;141.40;99.15;;;;;;;2.75;100.00;102246.75;4967967;28;20046;-79
2021/10/30 05:43:07;;;;;;;126.50;95.30;;;;;;;2.94;100.00;102249.66;5006311;28;20042;-80
2021/10/30 05:45:34;;;;;;;105.20;87.25;;;;;;;2.98;100.00;102250.25;5010626;28;20059;-79
2021/10/30 05:48:03;;;;;;;148.05;134.98;;;;;;;10.17;100.00;102248.88;5005660;28;20478;-77
2021/10/30 05:50:30;;;;;;;82.55;70.57;;;;;;;6.93;100.00;102244.47;5007965;28;20512;-80
2021/10/30 05:52:56;;;;;;;69.88;62.20;;;;;;;5.05;100.00;102239.41;4997476;28;20498;-79
2021/10/30 05:55:25;;;;;;;79.88;71.30;;;;;;;4.59;100.00;102251.19;5002432;28;20529;-80
2021/10/30 05:57:52;;;;;;;90.00;79.82;;;;;;;4.39;100.00;102248.56;5000190;28;20133;-79
2021/10/30 06:00:21;;;;;;;84.53;75.93;;;;;;;4.44;100.00;102256.91;5006007;28;20060;-78
2021/10/30 06:02:48;;;;;;;89.10;80.82;;;;;;;4.55;100.00;102262.97;5007125;28;20483;-78
2021/10/30 06:05:15;;;;;;;87.90;79.05;;;;;;;4.29;100.00;102266.91;5005832;28;20141;-79
2021/10/30 06:07:43;;;;;;;97.47;87.07;;;;;;;3.65;100.00;102260.69;5007469;28;20115;-78
2021/10/30 06:10:11;;;;;;;111.75;100.30;;;;;;;3.69;100.00;102263.91;5008103;28;20046;-79
2021/10/30 06:12:40;;;;;;;128.02;114.93;;;;;;;3.62;100.00;102262.72;5006463;28;20046;-78
2021/10/30 06:15:09;;;;;;;129.07;116.25;;;;;;;3.48;100.00;102263.84;5001020;28;20074;-80
2021/10/30 06:17:35;;;;;;;131.55;118.25;;;;;;;3.90;100.00;102271.84;5009881;28;20104;-81
2021/10/30 06:20:02;;;;;;;139.40;125.15;;;;;;;3.89;100.00;102267.56;4999230;28;20061;-79
2021/10/30 06:22:29;;;;;;;150.85;135.32;;;;;;;3.60;100.00;102270.75;5005528;28;20062;-78
2021/10/30 06:24:56;;;;;;;154.73;138.27;;;;;;;3.93;100.00;102260.25;5002173;28;20112;-80
2021/10/30 06:27:23;;;;;;;165.60;148.63;;;;;;;3.92;100.00;102267.31;5004660;28;20536;-77
2021/10/30 06:29:51;;;;;;;223.45;189.63;;;;;;;3.89;100.00;102265.75;5007316;28;20469;-78
2021/10/30 06:32:18;;;;;;;194.57;173.23;;;;;;;3.97;100.00;102264.31;5013497;28;20483;-79
2021/10/30 06:34:44;;;;;;;191.07;171.00;;;;;;;4.06;100.00;102259.13;5010440;28;20050;-79
2021/10/30 06:37:11;;;;;;;164.93;147.55;;;;;;;4.17;100.00;102260.88;5004100;28;20564;-79
2021/10/30 06:39:38;;;;;;;177.00;158.65;;;;;;;4.28;100.00;102268.72;5013775;28;20054;-80
2021/10/30 06:42:05;;;;;;;186.95;168.32;;;;;;;4.22;100.00;102268.41;5006697;28;20485;-80
2021/10/30 06:44:45;;;;;;;193.00;175.05;;;;;;;4.43;100.00;102258.72;5012099;28;20050;-80
2021/10/30 06:47:13;;;;;;;192.75;173.45;;;;;;;4.58;100.00;102270.59;5015695;28;20351;-79
2021/10/30 06:49:41;;;;;;;201.43;183.20;;;;;;;4.72;100.00;102265.97;5013357;28;20057;-79
2021/10/30 06:52:09;;;;;;;204.68;185.43;;;;;;;4.64;100.00;102266.63;5014105;28;20108;-80
2021/10/30 06:54:36;;;;;;;190.68;171.88;;;;;;;4.76;100.00;102270.84;5016165;28;20485;-80
2021/10/30 06:57:06;;;;;;;169.18;150.90;;;;;;;5.15;100.00;102268.41;5009341;28;20132;-79
2021/10/30 06:59:34;;;;;;;181.10;162.00;;;;;;;5.21;100.00;102257.34;5011050;28;20054;-78
2021/10/30 07:02:02;;;;;;;172.63;155.10;;;;;;;5.39;100.00;102260.19;5015971;28;20068;-79
2021/10/30 07:04:32;;;;;;;168.43;151.07;;;;;;;5.50;100.00;102251.31;5010649;28;20042;-78
2021/10/30 07:06:59;;;;;;;153.43;137.50;;;;;;;5.59;100.00;102255.78;5010378;28;20050;-78
2021/10/30 07:09:27;;;;;;;166.48;149.75;;;;;;;5.79;100.00;102253.19;5014362;28;20498;-78
2021/10/30 07:12:04;;;;;;;181.77;164.55;;;;;;;5.89;100.00;102256.66;5012403;28;20407;-78
2021/10/30 07:14:30;;;;;;;177.52;160.75;;;;;;;5.82;100.00;102259.00;5018070;28;20093;-80
2021/10/30 07:17:03;;;;;;;177.02;159.40;;;;;;;5.97;100.00;102254.19;5009930;28;20109;-80
2021/10/30 07:19:33;;;;;;;182.38;164.10;;;;;;;6.12;100.00;102246.72;5014172;28;20050;-79
2021/10/30 07:22:01;;;;;;;229.68;209.10;;;;;;;9.22;100.00;102250.97;5001297;28;20045;-80
2021/10/30 07:24:33;;;;;;;164.48;150.38;;;;;;;11.03;100.00;102258.06;5011702;28;20054;-78
2021/10/30 07:27:00;;;;;;;67.10;60.80;;;;;;;11.81;100.00;102251.84;5003998;28;20380;-78
2021/10/30 07:29:27;;;;;;;49.10;44.75;;;;;;;12.41;100.00;102239.59;5001323;28;20058;-77
2021/10/30 07:31:53;;;;;;;46.38;42.40;;;;;;;12.49;100.00;102235.00;5009653;28;20045;-79
2021/10/30 07:34:20;;;;;;;44.80;41.35;;;;;;;12.37;100.00;102233.78;5004297;28;20131;-79
2021/10/30 07:36:48;;;;;;;99.10;91.05;;;;;;;7.71;100.00;102244.88;5017131;28;20501;-78
2021/10/30 07:39:16;;;;;;;149.90;137.07;;;;;;;7.11;100.00;102247.19;5012309;28;20482;-78
2021/10/30 07:41:47;;;;;;;165.13;150.15;;;;;;;7.16;100.00;102254.66;5008801;28;20159;-79
2021/10/30 07:44:18;;;;;;;204.85;185.85;;;;;;;7.33;100.00;102244.16;5011081;28;20081;-78
2021/10/30 07:46:45;;;;;;;255.02;227.43;;;;;;;7.04;100.00;102246.91;5004590;28;20168;-78
2021/10/30 07:49:12;;;;;;;221.77;198.23;;;;;;;7.08;100.00;102247.44;4313238;28;10000688;-81
2021/10/30 07:51:38;;;;;;;207.38;185.90;;;;;;;7.25;100.00;102246.69;5007600;28;20045;-78
2021/10/30 07:54:10;;;;;;;189.70;170.77;;;;;;;6.93;100.00;102256.81;5014397;28;20712;-79
2021/10/30 07:56:41;;;;;;;200.13;179.73;;;;;;;6.89;100.00;102248.38;5012620;28;20046;-78
2021/10/30 07:59:10;;;;;;;208.60;188.18;;;;;;;7.17;100.00;102249.25;5005375;28;20050;-79
2021/10/30 08:01:37;;;;;;;222.85;201.68;;;;;;;7.22;100.00;102254.09;5008947;28;20050;-82
2021/10/30 08:04:03;;;;;;;217.38;197.20;;;;;;;7.35;100.00;102254.56;5008536;28;20480;-79
2021/10/30 08:06:30;;;;;;;229.23;205.32;;;;;;;7.58;100.00;102253.19;5008817;28;20462;-79
2021/10/30 08:09:00;;;;;;;231.45;190.80;;;;;;;7.53;100.00;102246.66;5018598;28;20042;-79
2021/10/30 08:11:29;;;;;;;221.05;198.52;;;;;;;7.50;100.00;102252.25;5007054;28;20054;-78
2021/10/30 08:13:59;;;;;;;219.45;197.25;;;;;;;7.72;100.00;102245.75;5012750;28;20057;-80
2021/10/30 08:16:30;;;;;;;239.65;216.70;;;;;;;8.06;100.00;102245.88;5007024;28;20108;-80
2021/10/30 08:18:57;;;;;;;232.02;210.50;;;;;;;8.34;100.00;102251.06;5006501;28;20050;-81
2021/10/30 08:21:24;;;;;;;246.85;223.82;;;;;;;8.28;100.00;102244.56;5002371;28;20471;-80
2021/10/30 08:23:56;;;;;;;234.60;212.40;;;;;;;8.38;100.00;102236.53;5017232;28;20060;-79
2021/10/30 08:26:23;;;;;;;244.60;220.98;;;;;;;8.37;100.00;102248.13;5013777;28;20479;-80
2021/10/30 08:28:52;;;;;;;228.52;205.82;;;;;;;8.30;100.00;102242.63;5007617;28;20058;-80
2021/10/30 08:31:19;;;;;;;231.60;209.07;;;;;;;7.68;100.00;102244.34;5019199;28;20100;-79
2021/10/30 08:33:47;;;;;;;228.85;205.85;;;;;;;7.83;100.00;102244.66;5012967;28;20045;-79
2021/10/30 08:36:14;;;;;;;223.70;201.43;;;;;;;7.95;100.00;102238.16;5013132;28;20042;-79
2021/10/30 08:38:41;;;;;;;236.63;213.77;;;;;;;8.10;100.00;102241.94;5014943;28;20042;-79
2021/10/30 08:41:09;;;;;;;252.75;230.05;;;;;;;8.59;100.00;102244.16;5012790;28;20058;-79
2021/10/30 08:43:37;;;;;;;266.92;242.40;;;;;;;8.58;100.00;102245.97;5006603;28;20046;-81
2021/10/30 08:46:08;;;;;;;216.18;195.75;;;;;;;8.36;100.00;102249.13;5008197;28;20080;-79
2021/10/30 08:48:38;;;;;;;227.38;205.85;;;;;;;8.81;100.00;102246.31;5010841;28;20061;-79
2021/10/30 08:51:07;;;;;;;241.52;219.90;;;;;;;8.44;100.00;102247.41;5009229;28;20046;-80
2021/10/30 08:53:36;;;;;;;269.58;245.88;;;;;;;9.76;100.00;102236.38;5013004;28;20042;-78
2021/10/30 08:56:07;;;;;;;219.07;199.35;;;;;;;9.14;100.00;102234.03;5016315;28;20102;-80
2021/10/30 08:58:37;;;;;;;224.98;204.45;;;;;;;9.16;100.00;102240.00;5013669;28;20112;-78
2021/10/30 09:01:08;;;;;;;221.93;202.20;;;;;;;9.37;100.00;102233.44;5013662;28;20157;-79
2021/10/30 09:03:54;;;;;;;240.57;219.80;;;;;;;9.47;100.00;102238.63;4987743;28;20054;-78
2021/10/30 09:06:33;;;;;;;248.30;227.27;;;;;;;9.54;100.00;102227.22;4988268;28;20531;-79
2021/10/30 09:09:05;;;;;;;244.55;224.98;;;;;;;9.50;100.00;102238.28;4993318;28;20038;-78
2021/10/30 09:11:32;;;;;;;225.52;206.05;;;;;;;9.51;100.00;102238.16;4992716;28;20054;-78
2021/10/30 09:14:00;;;;;;;242.32;221.90;;;;;;;9.50;100.00;102241.81;4988051;28;20050;-78
2021/10/30 09:16:32;;;;;;;202.18;183.68;;;;;;;9.40;100.00;102241.09;4993510;28;20039;-78
2021/10/30 09:19:00;;;;;;;216.23;197.82;;;;;;;9.43;100.00;102235.47;4994400;28;20050;-77
2021/10/30 09:21:32;;;;;;;212.18;193.85;;;;;;;9.35;100.00;102230.97;4995079;28;20054;-79
2021/10/30 09:23:59;;;;;;;252.90;233.05;;;;;;;10.27;100.00;102239.75;4995403;28;20046;-78
2021/10/30 09:26:29;;;;;;;237.23;213.02;;;;;;;9.78;100.00;102226.44;4991406;28;20053;-79
2021/10/30 09:29:00;;;;;;;264.08;241.27;;;;;;;10.73;100.00;102209.97;4982541;28;20050;-78
2021/10/30 09:31:29;;;;;;;139.35;128.88;;;;;;;11.37;100.00;102201.88;4986863;28;20074;-79
2021/10/30 09:33:58;;;;;;;121.18;111.70;;;;;;;11.37;100.00;102192.06;4980686;28;20054;-78
2021/10/30 09:36:30;;;;;;;135.32;125.10;;;;;;;11.45;100.00;102189.34;4986154;28;20482;-77
2021/10/30 09:39:00;;;;;;;184.38;170.35;;;;;;;10.48;100.00;102196.72;4997741;28;20514;-79
2021/10/30 09:41:30;;;;;;;202.40;187.05;;;;;;;10.34;100.00;102194.75;4995752;28;20049;-80
2021/10/30 09:44:00;;;;;;;230.80;213.73;;;;;;;10.23;100.00;102193.25;4992243;28;20050;-79
2021/10/30 09:46:31;;;;;;;218.55;201.88;;;;;;;10.29;100.00;102194.44;4988130;28;20479;-77
2021/10/30 09:49:00;;;;;;;208.65;192.85;;;;;;;10.41;100.00;102186.94;4989835;28;20042;-77
2021/10/30 09:51:37;;;;;;;229.05;212.73;;;;;;;10.34;100.00;102183.31;4979095;28;20064;-79
2021/10/30 09:54:11;;;;;;;221.30;204.60;;;;;;;10.15;100.00;102190.59;4998307;28;20050;-78
2021/10/30 09:56:47;;;;;;;215.35;198.15;;;;;;;10.04;100.00;102197.06;4987340;28;20062;-79
2021/10/30 09:59:16;;;;;;;222.77;205.25;;;;;;;10.36;100.00;102186.63;4990355;28;20133;-80
2021/10/30 10:01:45;;;;;;;218.52;201.98;;;;;;;10.06;100.00;102187.13;5003644;28;20057;-79
2021/10/30 10:04:13;;;;;;;200.73;184.98;;;;;;;10.16;100.00;102178.97;5012089;28;20074;-79
2021/10/30 10:06:42;;;;;;;205.30;189.55;;;;;;;10.32;100.00;102173.69;5015808;28;20466;-79
2021/10/30 10:09:10;;;;;;;222.40;206.02;;;;;;;10.13;100.00;102173.19;5006495;28;20141;-78
2021/10/30 10:11:41;;;;;;;230.20;212.98;;;;;;;10.19;100.00;102177.81;5009646;28;20054;-78
2021/10/30 10:14:15;;;;;;;239.50;222.07;;;;;;;10.16;100.00;102171.00;5018389;28;20030;-79
2021/10/30 10:16:55;;;;;;;238.93;221.55;;;;;;;10.66;100.00;102164.66;5013420;28;20047;-78
2021/10/30 10:19:40;;;;;;;205.55;189.63;;;;;;;10.70;100.00;102159.81;5014774;28;20046;-79
2021/10/30 10:22:08;;;;;;;202.13;186.52;;;;;;;10.63;100.00;102159.66;5019762;28;20069;-77
2021/10/30 10:24:50;;;;;;;205.20;189.48;;;;;;;10.93;100.00;102143.94;5014968;28;20052;-78
2021/10/30 10:27:20;;;;;;;161.93;149.80;;;;;;;11.20;100.00;102145.31;5020844;28;20096;-78
2021/10/30 10:30:02;;;;;;;147.35;136.52;;;;;;;11.39;100.00;102146.69;5019256;28;20037;-78
2021/10/30 10:32:35;;;;;;;105.72;97.63;;;;;;;11.77;100.00;102130.75;5015196;28;20054;-79
2021/10/30 10:35:16;;;;;;;107.30;99.00;;;;;;;11.77;100.00;102136.06;5008052;28;20483;-79
2021/10/30 10:37:53;;;;;;;112.05;103.78;;;;;;;11.68;100.00;102128.16;5010097;28;20458;-80
2021/10/30 10:40:37;;;;;;;116.10;107.82;;;;;;;11.80;100.00;102125.91;5014710;28;20546;-79
2021/10/30 10:43:08;;;;;;;116.82;107.90;;;;;;;11.78;100.00;102127.91;5014485;28;20089;-79
2021/10/30 10:45:52;;;;;;;135.90;126.00;;;;;;;11.97;100.00;102120.47;5010319;28;20050;-79
2021/10/30 10:48:24;;;;;;;79.47;73.07;;;;;;;12.18;100.00;102122.41;5020400;28;20113;-78
2021/10/30 10:50:56;;;;;;;82.50;76.38;;;;;;;12.09;100.00;102117.16;5011968;28;20053;-77
2021/10/30 10:53:28;;;;;;;142.23;131.82;;;;;;;11.80;100.00;102117.94;5013119;28;20054;-79
2021/10/30 10:56:22;;;;;;;139.30;129.27;;;;;;;11.88;100.00;102112.53;5005169;28;20061;-79
2021/10/30 10:59:17;;;;;;;136.48;126.43;;;;;;;11.99;100.00;102107.81;5004277;28;20108;-78
2021/10/30 11:02:22;;;;;;;129.75;120.07;;;;;;;11.86;100.00;102105.72;5015605;28;20677;-77
2021/10/30 11:05:26;;;;;;;104.78;97.20;;;;;;;11.93;100.00;102093.38;5010806;28;20046;-80